Bruning, NE (68322)

10:43 PM CDT on August 28, 2016 (GMT -0500)
Hebron Municipal | | Change Station

Elev 1467 ft 40.15 °N, 97.59 °W | Updated 8 minutes ago

Light Thunderstorms and Rain
Light Thunderstorm Rain
70 °F
Feels Like 70 °F
N
15
Wind Variable Wind from SSE
Gusts 20 mph

Today
High -- | Low -- °F
--% Chance of Precip.
Yesterday
High -- | Low -- °F
Precip. -- in
Pressure 30.15 in
Visibility 10.0 miles
Clouds Scattered Clouds 7000 ft
Mostly Cloudy 11000 ft
Dew Point 66 °F
Humidity 87%
Rainfall 0.00 in
Snow Depth Not available.
6:54 AM 8:07 PM
Waning Crescent, 11% visible
METAR KHJH 290335Z AUTO 15013G17KT 10SM -TSRA SCT070 BKN110 21/19 A3015 RMK AO2 LTG DSNT ALQS T02110188
Pressure 30.15 in
Visibility 10.0 miles
Clouds Scattered Clouds 7000 ft
Mostly Cloudy 11000 ft
Dew Point 66 °F
Humidity 87%
Rainfall 0.00 in
Snow Depth Not available.
6:54 AM 8:07 PM
Waning Crescent, 11% visible
METAR KHJH 290335Z AUTO 15013G17KT 10SM -TSRA SCT070 BKN110 21/19 A3015 RMK AO2 LTG DSNT ALQS T02110188

10-Day Weather Forecast

Almanac

Astronomy

Aug. 28, 2016 Rise Set
Actual Time
Civil Twilight
Nautical Twilight
Astronomical Twilight
Moon
Length of Visible Light
Length of Day
Tomorrow will be .
, % of the Moon is Illuminated

Today's Extremes

State Highs State Lows

Community

WunderPhotos

Upload Photos

1,935,783 photos uploaded!

WunderBlog® & News

Nearby

Air Quality

  Air Quality AQ Index Pollutant
Not available.

Snow Depth

Station Depth Elevation

Earthquake Activity

City Distance Mag. Time & Date
Minimum magnitude displayed is 2.5.

Coastal Water Temperatures

Place Temperature

Stations

Nearby Weather Stations

Station Location Temp. Windchill Dew Point Humidity Wind Precip. Elev Updated Type
                   

Watches & Warnings

There are currently no watches in effect.